KGEG/GEG METAR and TAF weather

Enter ICAO airport designator
Station Type Date Time Source
KGEG METAR 2020/01/20 21:53 UTC NOAA

KGEG 202153Z 05004KT 10SM FEW040 FEW070 OVC130 02/M01 A2999 RMK AO2 SLP174 T00221011


Station Type Date Time Source
KGEG Decoded METAR 2020/01/20 21:53 UTC NOAA

SPOKANE INTERNATIONAL AIRPORT , WA, United States (KGEG) 47-37N 117-32W 735M
Jan 20, 2020 - 04:53 PM EST / 2020.01.20 2153 UTC
Wind: from the NE (050 degrees) at 5 MPH (4 KT):0
Visibility: 10 mile(s):0
Sky conditions: overcast
Temperature: 36.0 F (2.2 C)
Dew Point: 30.0 F (-1.1 C)
Relative Humidity: 78%
Pressure (altimeter): 29.99 in. Hg (1015 hPa)
ob: KGEG 202153Z 05004KT 10SM FEW040 FEW070 OVC130 02/M01 A2999 RMK AO2 SLP174 T00221011
cycle: 22

Station Type Date Time Source
KGEG TAF 2020/01/20 18:39 UTC NOAA

TAF KGEG 201737Z 2018/2118 06007KT P6SM OVC110
FM210800 08005KT P6SM BKN040 OVC100

Example: see airport list